CheckWX is a tool to help pilots better visualize weather data.  It is not intended as a substitute for an official pre-flight weather briefing.

05:36:41 UTC

TXKF TAF
L F Wade International Airport
Hamilton, Bermuda
TAF TXKF 260533Z 2606/2706 10015KT 9999 FEW020 SCT140 BKN300

May-26@
06:00 UTC

May-26 @ 06:00 UTC

May-27@
06:00 UTC

May-27 @ 06:00 UTC

TAF TXKF 260533Z 2606/2706 10015KT 9999 FEW020 SCT140 BKN300
Wind
  • 100° at 15 KTS
Cloud Levels
  • Few at 2,000' AGL
  • Scattered at 14,000' AGL
  • Broken at 30,000' AGL